createdAt,value
2022-12-04T00:02:25.132Z,98598.19
2022-12-04T00:04:51.701Z,98593.13
2022-12-04T00:07:18.320Z,98590.41
2022-12-04T00:09:44.863Z,98583.75
2022-12-04T00:12:11.526Z,98582.38
2022-12-04T00:15:00.799Z,98577.56
2022-12-04T00:17:24.692Z,98597.75
2022-12-04T00:19:51.146Z,98592.16
2022-12-04T00:22:17.686Z,98587.31
2022-12-04T00:24:44.152Z,98592.34
2022-12-04T00:27:10.694Z,98589.41
2022-12-04T00:29:37.403Z,98588.03
2022-12-04T00:32:03.886Z,98590.97
2022-12-04T00:34:30.353Z,98588.78
2022-12-04T00:36:56.856Z,98594.38
2022-12-04T00:39:23.328Z,98585.81
2022-12-04T00:41:49.785Z,98587.16
2022-12-04T00:44:16.233Z,98585.28
2022-12-04T00:46:42.860Z,98578.84
2022-12-04T00:49:09.312Z,98579.91
2022-12-04T00:51:35.782Z,98582.00
2022-12-04T00:54:02.325Z,98571.06
2022-12-04T00:56:29.469Z,98576.09
2022-12-04T00:58:57.785Z,98571.25
2022-12-04T01:01:24.586Z,98569.66
2022-12-04T01:03:51.323Z,98572.81
2022-12-04T01:06:25.713Z,98569.84
2022-12-04T01:08:52.738Z,98564.22
2022-12-04T01:11:19.352Z,98567.94
2022-12-04T01:13:46.109Z,98565.75
2022-12-04T01:16:20.196Z,98561.19
2022-12-04T01:18:47.041Z,98566.50
2022-12-04T01:21:13.530Z,98559.31
2022-12-04T01:23:40.010Z,98553.75
2022-12-04T01:26:06.539Z,98554.81
2022-12-04T01:28:32.978Z,98552.16
2022-12-04T01:31:03.221Z,98555.06
2022-12-04T01:33:29.809Z,98554.50
2022-12-04T01:35:57.156Z,98551.28
2022-12-04T01:38:24.337Z,98552.03
2022-12-04T01:40:50.862Z,98553.31
2022-12-04T01:43:17.849Z,98546.66
2022-12-04T01:45:45.675Z,98542.63
2022-12-04T01:48:25.116Z,98538.06
2022-12-04T01:50:54.102Z,98540.19
2022-12-04T01:53:20.556Z,98544.38
2022-12-04T01:55:47.374Z,98545.19
2022-12-04T01:58:13.881Z,98539.31
2022-12-04T02:00:40.367Z,98538.25
2022-12-04T02:03:06.902Z,98541.72
2022-12-04T02:05:33.448Z,98548.09
2022-12-04T02:08:00.966Z,98545.94
2022-12-04T02:10:44.888Z,98554.97
2022-12-04T02:13:19.771Z,98555.22
2022-12-04T02:16:05.596Z,98550.13
2022-12-04T02:18:41.113Z,98544.28
2022-12-04T02:21:33.741Z,98551.66
2022-12-04T02:24:22.498Z,98560.16
2022-12-04T02:26:51.868Z,98565.69
2022-12-04T02:29:46.384Z,98559.03
2022-12-04T02:32:19.888Z,98556.63
2022-12-04T02:34:55.525Z,98551.88
2022-12-04T02:37:32.083Z,98547.59
2022-12-04T02:40:07.811Z,98544.94
2022-12-04T02:43:02.177Z,98548.09
2022-12-04T02:45:37.267Z,98544.63
2022-12-04T02:48:04.348Z,98544.31
2022-12-04T02:50:30.899Z,98540.63
2022-12-04T02:53:09.526Z,98534.75
2022-12-04T02:55:40.315Z,98530.47
2022-12-04T02:58:13.241Z,98532.03
2022-12-04T03:00:40.075Z,98534.69
2022-12-04T03:03:08.575Z,98546.59
2022-12-04T03:05:51.064Z,98540.72
2022-12-04T03:08:20.228Z,98525.84
2022-12-04T03:10:52.273Z,98529.56
2022-12-04T03:13:24.128Z,98524.25
2022-12-04T03:15:53.672Z,98531.16
2022-12-04T03:18:22.665Z,98528.50
2022-12-04T03:20:50.348Z,98522.88
2022-12-04T03:23:22.327Z,98526.06
2022-12-04T03:25:57.511Z,98526.31
2022-12-04T03:28:34.417Z,98528.19
2022-12-04T03:31:04.787Z,98518.59
2022-12-04T03:33:40.302Z,98525.97
2022-12-04T03:36:27.918Z,98530.47
2022-12-04T03:39:00.596Z,98524.88
2022-12-04T03:41:57.251Z,98520.59
2022-12-04T03:44:33.197Z,98516.34
2022-12-04T03:47:04.693Z,98511.28
2022-12-04T03:49:33.273Z,98519.78
2022-12-04T03:52:07.638Z,98534.13
2022-12-04T03:54:37.128Z,98542.09
2022-12-04T03:57:12.887Z,98538.06
2022-12-04T03:59:42.680Z,98544.44
2022-12-04T04:02:12.435Z,98552.66
2022-12-04T04:04:40.614Z,98547.03
2022-12-04T04:07:44.382Z,98545.41
2022-12-04T04:10:14.047Z,98549.34
2022-12-04T04:12:44.077Z,98539.00
2022-12-04T04:15:32.138Z,98545.34
2022-12-04T04:18:17.479Z,98550.09
2022-12-04T04:21:04.596Z,98549.53
2022-12-04T04:23:52.360Z,98544.72
2022-12-04T04:26:18.919Z,98542.31
2022-12-04T04:28:45.782Z,98533.78
2022-12-04T04:31:36.840Z,98534.81
2022-12-04T04:34:24.669Z,98524.69
2022-12-04T04:37:03.414Z,98536.34
2022-12-04T04:39:32.091Z,98530.47
2022-12-04T04:42:26.610Z,98536.34
2022-12-04T04:45:05.697Z,98536.13
2022-12-04T04:47:43.725Z,98530.06
2022-12-04T04:50:11.039Z,98530.63
2022-12-04T04:52:38.472Z,98525.09
2022-12-04T04:55:05.241Z,98527.50
2022-12-04T04:57:34.232Z,98522.72
2022-12-04T05:00:01.026Z,98533.34
2022-12-04T05:02:27.695Z,98529.91
2022-12-04T05:04:54.731Z,98542.38
2022-12-04T05:07:21.197Z,98537.31
2022-12-04T05:09:47.644Z,98545.28
2022-12-04T05:12:14.106Z,98541.25
2022-12-04T05:14:40.582Z,98544.16
2022-12-04T05:17:12.332Z,98544.16
2022-12-04T05:19:55.030Z,98547.38
2022-12-04T05:22:27.530Z,98547.38
2022-12-04T05:24:54.074Z,98545.22
2022-12-04T05:27:21.324Z,98540.38
2022-12-04T05:29:47.789Z,98529.69
2022-12-04T05:32:14.261Z,98533.94
2022-12-04T05:34:40.791Z,98535.78
2022-12-04T05:37:07.254Z,98531.53
2022-12-04T05:39:34.308Z,98525.91
2022-12-04T05:42:00.994Z,98539.97
2022-12-04T05:44:27.484Z,98535.72
2022-12-04T05:46:54.431Z,98536.50
2022-12-04T05:49:20.921Z,98530.16
2022-12-04T05:51:47.372Z,98535.47
2022-12-04T05:54:13.817Z,98538.13
2022-12-04T05:56:40.259Z,98532.00
2022-12-04T05:59:06.709Z,98539.19
2022-12-04T06:01:33.236Z,98543.69
2022-12-04T06:03:59.727Z,98536.19
2022-12-04T06:06:26.303Z,98533.78
2022-12-04T06:08:54.986Z,98539.09
2022-12-04T06:11:26.786Z,98546.00
2022-12-04T06:13:53.274Z,98550.38
2022-12-04T06:16:22.143Z,98548.28
2022-12-04T06:18:50.195Z,98542.16
2022-12-04T06:21:16.729Z,98538.91
2022-12-04T06:23:43.189Z,98542.88
2022-12-04T06:26:09.661Z,98533.00
2022-12-04T06:28:36.366Z,98536.91
2022-12-04T06:31:04.026Z,98542.47
2022-12-04T06:33:30.523Z,98530.59
2022-12-04T06:36:11.406Z,98540.22
2022-12-04T06:38:38.192Z,98533.59
2022-12-04T06:41:06.063Z,98528.88
2022-12-04T06:43:32.647Z,98524.91
2022-12-04T06:46:06.970Z,98530.56
2022-12-04T06:48:33.543Z,98537.72
2022-12-04T06:51:01.106Z,98538.25
2022-12-04T06:53:30.172Z,98532.16
2022-12-04T06:56:00.523Z,98534.81
2022-12-04T06:58:27.086Z,98537.00
2022-12-04T07:00:53.921Z,98535.38
2022-12-04T07:03:20.474Z,98540.19
2022-12-04T07:05:46.945Z,98542.03
2022-12-04T07:08:14.068Z,98548.41
2022-12-04T07:10:40.525Z,98547.38
2022-12-04T07:13:07.049Z,98539.38
2022-12-04T07:15:34.503Z,98544.16
2022-12-04T07:18:01.045Z,98554.53
2022-12-04T07:20:27.569Z,98544.72
2022-12-04T07:22:54.038Z,98553.19
2022-12-04T07:25:20.490Z,98548.59
2022-12-04T07:27:46.986Z,98546.41
2022-12-04T07:30:15.868Z,98550.38
2022-12-04T07:32:42.605Z,98551.66
2022-12-04T07:35:09.204Z,98554.78
2022-12-04T07:37:35.981Z,98547.00
2022-12-04T07:40:03.531Z,98548.91
2022-12-04T07:42:30.003Z,98551.81
2022-12-04T07:44:56.452Z,98549.97
2022-12-04T07:47:22.902Z,98547.06
2022-12-04T07:49:49.412Z,98545.22
2022-12-04T07:52:16.109Z,98549.72
2022-12-04T07:54:42.559Z,98545.69
2022-12-04T07:57:09.013Z,98550.19
2022-12-04T07:59:35.456Z,98551.50
2022-12-04T08:02:01.949Z,98549.91
2022-12-04T08:04:28.845Z,98538.69
2022-12-04T08:06:55.619Z,98549.56
2022-12-04T08:09:22.246Z,98548.75
2022-12-04T08:11:48.692Z,98536.75
2022-12-04T08:14:15.242Z,98538.94
2022-12-04T08:16:41.733Z,98541.69
2022-12-04T08:19:08.210Z,98541.50
2022-12-04T08:21:34.738Z,98549.06
2022-12-04T08:24:01.265Z,98545.13
2022-12-04T08:26:28.929Z,98549.22
2022-12-04T08:28:56.215Z,98553.25
2022-12-04T08:31:27.457Z,98557.31
2022-12-04T08:33:54.746Z,98550.75
2022-12-04T08:36:21.699Z,98554.59
2022-12-04T08:38:48.589Z,98554.00
2022-12-04T08:41:16.114Z,98558.31
2022-12-04T08:43:42.571Z,98557.25
2022-12-04T08:46:10.840Z,98552.00
2022-12-04T08:48:37.356Z,98547.97
2022-12-04T08:51:04.360Z,98551.69
2022-12-04T08:53:31.226Z,98552.72
2022-12-04T08:55:57.677Z,98552.19
2022-12-04T08:58:24.146Z,98547.91
2022-12-04T09:00:50.596Z,98549.75
2022-12-04T09:03:18.271Z,98550.56
2022-12-04T09:05:47.870Z,98541.31
2022-12-04T09:08:15.242Z,98547.47
2022-12-04T09:10:42.056Z,98541.38
2022-12-04T09:13:08.615Z,98544.81
2022-12-04T09:15:35.144Z,98545.88
2022-12-04T09:18:01.624Z,98546.94
2022-12-04T09:20:28.583Z,98561.56
2022-12-04T09:23:04.125Z,98564.41
2022-12-04T09:25:31.847Z,98559.84
2022-12-04T09:27:58.309Z,98561.38
2022-12-04T09:30:24.763Z,98563.53
2022-12-04T09:32:51.314Z,98556.06
2022-12-04T09:35:17.775Z,98554.13
2022-12-04T09:37:44.225Z,98545.28
2022-12-04T09:40:19.782Z,98557.91
2022-12-04T09:42:49.837Z,98555.31
2022-12-04T09:45:21.064Z,98556.03
2022-12-04T09:47:49.005Z,98546.28
2022-12-04T09:50:20.912Z,98543.44
2022-12-04T09:53:03.516Z,98545.50
2022-12-04T09:55:36.348Z,98540.47
2022-12-04T09:58:04.837Z,98548.44
2022-12-04T10:00:42.059Z,98551.75
2022-12-04T10:03:16.552Z,98555.28
2022-12-04T10:06:03.984Z,98555.63
2022-12-04T10:08:44.125Z,98555.88
2022-12-04T10:11:41.400Z,98551.09
2022-12-04T10:14:30.378Z,98546.28
2022-12-04T10:17:21.643Z,98551.34
2022-12-04T10:20:09.116Z,98556.94
2022-12-04T10:22:41.750Z,98548.38
2022-12-04T10:25:24.229Z,98550.94
2022-12-04T10:27:53.970Z,98543.72
2022-12-04T10:30:23.604Z,98539.69
2022-12-04T10:33:11.893Z,98543.88
2022-12-04T10:35:38.673Z,98541.47
2022-12-04T10:38:11.318Z,98544.03
2022-12-04T10:40:41.691Z,98543.50
2022-12-04T10:43:16.849Z,98549.53
2022-12-04T10:45:43.353Z,98543.97
2022-12-04T10:48:29.271Z,98541.91
2022-12-04T10:50:55.860Z,98541.97
2022-12-04T10:53:24.682Z,98535.34
2022-12-04T10:55:51.131Z,98534.31
2022-12-04T10:58:18.086Z,98530.03
2022-12-04T11:00:45.769Z,98524.16
2022-12-04T11:03:25.691Z,98515.63
2022-12-04T11:06:05.502Z,98502.34
2022-12-04T11:08:36.529Z,98506.84
2022-12-04T11:11:11.413Z,98506.63
2022-12-04T11:13:38.133Z,98509.56
2022-12-04T11:16:06.498Z,98511.75
2022-12-04T11:18:46.242Z,98509.91
2022-12-04T11:21:17.252Z,98508.03
2022-12-04T11:23:48.536Z,98514.41
2022-12-04T11:26:15.374Z,98507.97
2022-12-04T11:28:45.841Z,98512.97
2022-12-04T11:31:17.052Z,98508.16
2022-12-04T11:33:46.187Z,98513.47
2022-12-04T11:36:32.027Z,98517.41
2022-12-04T11:39:15.555Z,98508.31
2022-12-04T11:41:42.112Z,98519.44
2022-12-04T11:44:28.377Z,98521.53
2022-12-04T11:46:56.510Z,98519.38
2022-12-04T11:49:23.939Z,98519.59
2022-12-04T11:52:12.317Z,98513.00
2022-12-04T11:54:51.753Z,98512.28
2022-12-04T11:57:32.031Z,98510.19
2022-12-04T12:00:15.115Z,98508.31
2022-12-04T12:03:10.900Z,98503.00
2022-12-04T12:05:46.284Z,98503.00
2022-12-04T12:08:18.726Z,98505.13
2022-12-04T12:11:11.171Z,98506.97
2022-12-04T12:13:55.032Z,98502.47
2022-12-04T12:16:36.645Z,98499.31
2022-12-04T12:19:18.204Z,98495.88
2022-12-04T12:22:25.929Z,98485.84
2022-12-04T12:25:03.956Z,98479.56
2022-12-04T12:27:34.983Z,98474.56
2022-12-04T12:30:23.451Z,98468.03
2022-12-04T12:32:58.904Z,98478.06
2022-12-04T12:35:39.651Z,98477.38
2022-12-04T12:38:16.245Z,98477.81
2022-12-04T12:40:50.082Z,98477.09
2022-12-04T12:43:26.280Z,98462.81
2022-12-04T12:45:54.021Z,98465.81
2022-12-04T12:48:44.920Z,98460.28
2022-12-04T12:51:32.207Z,98466.22
2022-12-04T12:54:09.063Z,98458.84
2022-12-04T12:56:38.432Z,98451.50
2022-12-04T12:59:06.021Z,98455.38
2022-12-04T13:01:46.191Z,98456.34
2022-12-04T13:04:16.006Z,98448.94
2022-12-04T13:06:43.166Z,98447.69
2022-12-04T13:09:25.575Z,98444.25
2022-12-04T13:11:54.133Z,98433.31
2022-12-04T13:14:20.790Z,98434.69
2022-12-04T13:16:51.270Z,98425.16
2022-12-04T13:19:29.831Z,98420.63
2022-12-04T13:22:15.664Z,98425.41
2022-12-04T13:25:04.687Z,98416.38
2022-12-04T13:27:50.261Z,98415.31
2022-12-04T13:30:49.597Z,98415.88
2022-12-04T13:33:18.555Z,98404.97
2022-12-04T13:36:03.325Z,98414.56
2022-12-04T13:38:49.915Z,98410.63
2022-12-04T13:41:21.847Z,98403.41
2022-12-04T13:43:49.222Z,98399.94
2022-12-04T13:46:34.853Z,98403.66
2022-12-04T13:49:31.163Z,98406.06
2022-12-04T13:51:58.601Z,98406.25
2022-12-04T13:54:26.232Z,98403.06
2022-12-04T13:56:55.501Z,98400.66
2022-12-04T13:59:35.207Z,98397.19
2022-12-04T14:02:21.723Z,98402.22
2022-12-04T14:05:06.579Z,98390.00
2022-12-04T14:07:43.211Z,98399.31
2022-12-04T14:10:15.786Z,98394.19
2022-12-04T14:12:48.954Z,98390.72
2022-12-04T14:15:22.169Z,98391.31
2022-12-04T14:18:03.431Z,98385.47
2022-12-04T14:20:31.952Z,98396.41
2022-12-04T14:23:33.403Z,98405.72
2022-12-04T14:26:00.105Z,98401.97
2022-12-04T14:28:37.321Z,98401.44
2022-12-04T14:31:14.326Z,98393.22
2022-12-04T14:33:55.693Z,98388.84
2022-12-04T14:36:31.397Z,98396.84
2022-12-04T14:39:22.855Z,98395.78
2022-12-04T14:41:49.334Z,98396.59
2022-12-04T14:44:34.077Z,98397.19
2022-12-04T14:47:19.258Z,98397.16
2022-12-04T14:50:02.950Z,98392.41
2022-12-04T14:52:32.992Z,98401.97
2022-12-04T14:55:07.354Z,98401.69
2022-12-04T14:58:21.729Z,98404.31
2022-12-04T15:00:54.955Z,98420.00
2022-12-04T15:03:21.949Z,98416.53
2022-12-04T15:05:49.688Z,98416.00
2022-12-04T15:08:16.415Z,98423.44
2022-12-04T15:11:07.826Z,98429.31
2022-12-04T15:13:37.247Z,98422.09
2022-12-04T15:16:16.715Z,98427.66
2022-12-04T15:18:53.577Z,98424.47
2022-12-04T15:21:20.028Z,98422.31
2022-12-04T15:23:46.483Z,98426.88
2022-12-04T15:26:20.956Z,98423.13
2022-12-04T15:29:03.429Z,98420.75
2022-12-04T15:31:32.359Z,98428.47
2022-12-04T15:34:01.494Z,98422.91
2022-12-04T15:36:30.507Z,98417.28
2022-12-04T15:38:56.965Z,98416.81
2022-12-04T15:41:29.311Z,98415.44
2022-12-04T15:43:55.770Z,98424.50
2022-12-04T15:46:23.904Z,98423.69
2022-12-04T15:48:50.443Z,98427.66
2022-12-04T15:51:18.924Z,98429.78
2022-12-04T15:53:45.861Z,98437.47
2022-12-04T15:56:21.808Z,98438.28
2022-12-04T15:58:59.401Z,98446.09
2022-12-04T16:01:25.918Z,98448.19
2022-12-04T16:03:53.309Z,98452.22
2022-12-04T16:06:23.191Z,98449.66
2022-12-04T16:08:57.362Z,98451.56
2022-12-04T16:11:28.740Z,98449.81
2022-12-04T16:14:07.999Z,98453.31
2022-12-04T16:16:37.437Z,98456.03
2022-12-04T16:19:27.670Z,98461.38
2022-12-04T16:21:54.181Z,98470.50
2022-12-04T16:24:21.547Z,98464.13
2022-12-04T16:26:50.105Z,98459.09
2022-12-04T16:29:17.614Z,98461.75
2022-12-04T16:31:44.155Z,98443.59
2022-12-04T16:34:13.830Z,98451.88
2022-12-04T16:36:40.597Z,98452.16
2022-12-04T16:39:07.116Z,98458.81
2022-12-04T16:41:33.833Z,98454.81
2022-12-04T16:44:00.532Z,98450.56
2022-12-04T16:46:28.131Z,98447.31
2022-12-04T16:48:54.896Z,98447.06
2022-12-04T16:51:25.378Z,98454.03
2022-12-04T16:53:52.012Z,98449.22
2022-12-04T16:56:18.949Z,98452.44
2022-12-04T16:58:45.387Z,98451.63
2022-12-04T17:01:24.742Z,98467.09
2022-12-04T17:03:51.347Z,98453.22
2022-12-04T17:06:18.221Z,98455.63
2022-12-04T17:08:44.795Z,98459.91
2022-12-04T17:11:15.263Z,98457.25
2022-12-04T17:13:41.893Z,98466.31
2022-12-04T17:16:08.784Z,98467.09
2022-12-04T17:18:35.298Z,98473.53
2022-12-04T17:21:08.511Z,98478.31
2022-12-04T17:23:34.989Z,98474.56
2022-12-04T17:26:05.555Z,98472.19
2022-12-04T17:28:32.111Z,98467.38
2022-12-04T17:30:58.743Z,98467.91
2022-12-04T17:33:25.677Z,98478.34
2022-12-04T17:35:53.968Z,98483.94
2022-12-04T17:38:20.509Z,98472.72
2022-12-04T17:40:58.048Z,98474.31
2022-12-04T17:43:24.609Z,98470.31
2022-12-04T17:45:51.143Z,98462.03
2022-12-04T17:48:17.598Z,98466.06
2022-12-04T17:50:44.109Z,98466.59
2022-12-04T17:53:10.616Z,98466.28
2022-12-04T17:55:37.126Z,98468.19
2022-12-04T17:58:03.760Z,98467.66
2022-12-04T18:00:30.381Z,98454.03
2022-12-04T18:02:57.022Z,98457.22
2022-12-04T18:05:23.545Z,98455.59
2022-12-04T18:07:50.146Z,98456.69
2022-12-04T18:10:16.688Z,98455.06
2022-12-04T18:12:43.575Z,98456.41
2022-12-04T18:15:10.615Z,98458.81
2022-12-04T18:17:37.125Z,98458.00
2022-12-04T18:20:05.333Z,98468.72
2022-12-04T18:22:32.274Z,98457.19
2022-12-04T18:24:58.963Z,98459.06
2022-12-04T18:27:25.620Z,98460.44
2022-12-04T18:29:52.164Z,98455.09
2022-12-04T18:32:18.818Z,98459.06
2022-12-04T18:34:45.667Z,98463.09
2022-12-04T18:37:12.203Z,98455.09
2022-12-04T18:39:38.664Z,98452.66
2022-12-04T18:42:05.261Z,98450.56
2022-12-04T18:44:31.807Z,98446.28
2022-12-04T18:46:58.472Z,98440.38
2022-12-04T18:49:25.172Z,98446.53
2022-12-04T18:51:51.834Z,98435.31
2022-12-04T18:54:19.930Z,98443.06
2022-12-04T18:56:46.600Z,98445.22
2022-12-04T18:59:21.246Z,98439.88
2022-12-04T19:01:49.946Z,98446.81
2022-12-04T19:04:18.346Z,98451.34
2022-12-04T19:06:46.718Z,98450.00
2022-12-04T19:09:15.794Z,98451.59
2022-12-04T19:11:42.356Z,98453.47
2022-12-04T19:14:17.682Z,98452.72
2022-12-04T19:17:04.858Z,98452.94
2022-12-04T19:19:31.916Z,98461.78
2022-12-04T19:21:59.018Z,98465.75
2022-12-04T19:24:25.533Z,98465.22
2022-12-04T19:26:53.308Z,98468.97
2022-12-04T19:29:19.717Z,98464.16
2022-12-04T19:31:46.168Z,98468.16
2022-12-04T19:34:12.602Z,98469.50
2022-12-04T19:36:40.269Z,98470.84
2022-12-04T19:39:09.255Z,98471.63
2022-12-04T19:41:37.216Z,98477.50
2022-12-04T19:44:19.982Z,98476.13
2022-12-04T19:46:50.499Z,98477.50
2022-12-04T19:49:16.914Z,98477.22
2022-12-04T19:51:43.600Z,98474.03
2022-12-04T19:54:12.776Z,98474.81
2022-12-04T19:56:39.235Z,98477.47
2022-12-04T19:59:06.762Z,98474.00
2022-12-04T20:01:33.553Z,98478.00
2022-12-04T20:04:02.476Z,98473.72
2022-12-04T20:06:29.250Z,98466.25
2022-12-04T20:08:57.635Z,98472.09
2022-12-04T20:11:24.113Z,98474.78
2022-12-04T20:13:53.878Z,98472.91
2022-12-04T20:16:20.544Z,98466.78
2022-12-04T20:18:47.101Z,98476.13
2022-12-04T20:21:13.666Z,98461.75
2022-12-04T20:23:49.431Z,98465.75
2022-12-04T20:26:23.393Z,98458.56
2022-12-04T20:28:49.924Z,98460.94
2022-12-04T20:31:20.873Z,98457.19
2022-12-04T20:33:48.133Z,98454.84
2022-12-04T20:36:15.639Z,98452.94
2022-12-04T20:38:42.321Z,98457.75
2022-12-04T20:41:10.190Z,98454.53
2022-12-04T20:43:36.774Z,98456.91
2022-12-04T20:46:13.589Z,98456.66
2022-12-04T20:48:40.094Z,98448.88
2022-12-04T20:51:06.666Z,98451.75
2022-12-04T20:53:33.139Z,98449.34
2022-12-04T20:55:59.575Z,98440.56
2022-12-04T20:58:26.051Z,98450.38
2022-12-04T21:00:52.537Z,98442.91
2022-12-04T21:03:19.040Z,98437.25
2022-12-04T21:05:49.789Z,98440.19
2022-12-04T21:08:36.200Z,98438.03
2022-12-04T21:11:02.979Z,98441.50
2022-12-04T21:13:48.127Z,98442.03
2022-12-04T21:16:14.843Z,98436.69
2022-12-04T21:18:41.350Z,98438.81
2022-12-04T21:21:07.803Z,98433.19
2022-12-04T21:23:35.864Z,98428.91
2022-12-04T21:26:02.367Z,98433.44
2022-12-04T21:28:28.835Z,98425.69
2022-12-04T21:31:03.438Z,98428.91
2022-12-04T21:33:31.554Z,98423.59
2022-12-04T21:36:06.399Z,98421.13
2022-12-04T21:38:33.951Z,98426.53
2022-12-04T21:41:00.562Z,98416.72
2022-12-04T21:43:28.724Z,98413.19
2022-12-04T21:46:09.048Z,98417.72
2022-12-04T21:48:36.309Z,98420.41
2022-12-04T21:51:13.235Z,98414.00
2022-12-04T21:53:54.534Z,98410.25
2022-12-04T21:56:24.336Z,98398.78
2022-12-04T21:58:51.383Z,98415.88
2022-12-04T22:01:18.569Z,98410.00
2022-12-04T22:03:45.123Z,98408.66
2022-12-04T22:06:11.586Z,98404.69
2022-12-04T22:08:39.393Z,98406.53
2022-12-04T22:11:06.834Z,98406.81
2022-12-04T22:13:33.485Z,98409.50
2022-12-04T22:16:06.120Z,98412.97
2022-12-04T22:18:33.744Z,98420.72
2022-12-04T22:21:00.892Z,98416.72
2022-12-04T22:23:27.381Z,98418.31
2022-12-04T22:25:53.828Z,98420.75
2022-12-04T22:28:20.315Z,98429.59
2022-12-04T22:30:46.984Z,98419.72
2022-12-04T22:33:13.452Z,98427.97
2022-12-04T22:35:39.901Z,98424.78
2022-12-04T22:38:06.364Z,98414.59
2022-12-04T22:40:32.992Z,98427.97
2022-12-04T22:42:59.437Z,98426.09
2022-12-04T22:45:25.886Z,98419.44
2022-12-04T22:47:52.404Z,98427.19
2022-12-04T22:50:18.953Z,98424.81
2022-12-04T22:52:45.474Z,98422.66
2022-12-04T22:55:11.922Z,98420.28
2022-12-04T22:57:38.384Z,98420.53
2022-12-04T23:00:05.778Z,98419.19
2022-12-04T23:02:32.890Z,98418.00
2022-12-04T23:04:59.393Z,98420.13
2022-12-04T23:07:25.894Z,98418.50
2022-12-04T23:09:52.689Z,98411.56
2022-12-04T23:12:19.384Z,98419.84
2022-12-04T23:14:45.834Z,98418.22
2022-12-04T23:17:12.286Z,98410.78
2022-12-04T23:19:38.757Z,98416.63
2022-12-04T23:22:05.218Z,98412.88
2022-12-04T23:24:31.716Z,98417.72
2022-12-04T23:26:58.226Z,98419.56
2022-12-04T23:32:11.207Z,98419.03
2022-12-04T23:34:38.125Z,98413.97
2022-12-04T23:37:04.584Z,98420.09
2022-12-04T23:39:31.045Z,98422.25
2022-12-04T23:41:57.506Z,98417.41
2022-12-04T23:44:23.961Z,98417.94
2022-12-04T23:46:50.484Z,98421.13
2022-12-04T23:49:16.975Z,98429.66
2022-12-04T23:51:43.435Z,98434.44
2022-12-04T23:54:09.880Z,98433.38
2022-12-04T23:56:36.324Z,98432.56
2022-12-04T23:59:02.785Z,98431.50
